Time;durP1;ratioP1;P1;durP2;ratioP2;P2;SDS_P1;SDS_P2;PMS_P1;PMS_P2;Temp;Humidity;BMP_temperature;BMP_pressure;BME280_temperature;BME280_humidity;BME280_pressure;Samples;Min_cycle;Max_cycle;Signal;HPM_P1;HPM_P2
2021/07/05 00:00:22;;;;;;;8.23;5.28;;;;;;;22.42;52.47;99494.28;5052041;28;20052;-72
2021/07/05 00:02:51;;;;;;;8.50;5.32;;;;;;;22.43;52.53;99498.69;5054779;28;20068;-72
2021/07/05 00:05:20;;;;;;;7.70;4.97;;;;;;;22.35;52.92;99501.50;5055786;28;20045;-73
2021/07/05 00:07:49;;;;;;;10.38;4.85;;;;;;;22.25;53.54;99497.16;5055792;28;20483;-73
2021/07/05 00:10:21;;;;;;;7.35;4.93;;;;;;;22.33;53.40;99504.41;5055601;28;20083;-72
2021/07/05 00:12:51;;;;;;;7.97;5.63;;;;;;;22.20;53.36;99501.50;5055716;28;20049;-72
2021/07/05 00:15:23;;;;;;;8.52;4.75;;;;;;;22.20;53.84;99499.63;5055367;28;20077;-72
2021/07/05 00:17:53;;;;;;;7.95;4.93;;;;;;;22.11;53.98;99500.72;5055057;28;20056;-72
2021/07/05 00:20:22;;;;;;;11.32;5.10;;;;;;;22.08;53.99;99501.06;5055302;28;20036;-72
2021/07/05 00:22:51;;;;;;;8.18;5.07;;;;;;;22.06;54.03;99499.53;5055733;28;20502;-72
2021/07/05 00:25:21;;;;;;;9.88;5.57;;;;;;;21.93;54.74;99494.75;5055463;28;20398;-69
2021/07/05 00:27:49;;;;;;;10.23;5.43;;;;;;;21.85;54.80;99501.09;5054633;28;20110;-68
2021/07/05 00:30:21;;;;;;;9.63;5.13;;;;;;;21.80;55.20;99505.38;5055018;28;20507;-68
2021/07/05 00:32:51;;;;;;;9.32;5.32;;;;;;;21.71;55.60;99502.75;5055168;28;20041;-69
2021/07/05 00:35:22;;;;;;;7.72;5.20;;;;;;;21.69;55.68;99502.06;5055137;28;20052;-69
2021/07/05 00:37:51;;;;;;;9.55;5.68;;;;;;;21.79;55.32;99503.69;5055462;28;20113;-69
2021/07/05 00:40:22;;;;;;;8.15;5.13;;;;;;;21.71;55.66;99504.59;5054882;28;20091;-69
2021/07/05 00:42:51;;;;;;;8.82;5.18;;;;;;;21.74;55.34;99497.97;5055063;28;20048;-70
2021/07/05 00:45:20;;;;;;;8.95;5.43;;;;;;;21.85;54.77;99486.66;5054706;28;20049;-70
2021/07/05 00:47:48;;;;;;;8.70;5.50;;;;;;;21.65;55.60;99489.88;5055306;28;20053;-70
2021/07/05 00:50:19;;;;;;;10.27;5.72;;;;;;;21.71;55.29;99494.59;5054882;28;20396;-71
2021/07/05 00:52:50;;;;;;;8.48;5.60;;;;;;;21.68;55.51;99489.50;5054929;28;20048;-70
2021/07/05 00:55:21;;;;;;;7.78;5.18;;;;;;;21.72;55.48;99481.88;5054631;28;20056;-70
2021/07/05 00:57:49;;;;;;;10.38;5.50;;;;;;;21.56;56.18;99485.53;5054919;28;20063;-71
2021/07/05 01:00:21;;;;;;;8.43;5.07;;;;;;;21.50;56.37;99491.69;5054465;28;20041;-71
2021/07/05 01:02:50;;;;;;;9.90;5.72;;;;;;;21.55;55.96;99500.13;5055092;28;20044;-70
2021/07/05 01:05:20;;;;;;;9.05;5.30;;;;;;;21.46;56.19;99503.94;5054582;28;20083;-71
2021/07/05 01:07:49;;;;;;;7.82;5.43;;;;;;;21.28;57.01;99495.25;5054717;28;20410;-70
2021/07/05 01:10:19;;;;;;;7.93;5.15;;;;;;;21.27;57.14;99496.28;5054098;28;20044;-70
2021/07/05 01:12:52;;;;;;;8.07;5.50;;;;;;;21.39;57.00;99501.09;5054648;28;20061;-71
2021/07/05 01:15:23;;;;;;;9.98;5.50;;;;;;;21.28;57.03;99497.94;5091888;28;20048;-71
2021/07/05 01:17:52;;;;;;;8.00;5.57;;;;;;;21.28;57.31;99492.53;5094874;28;20066;-71
2021/07/05 01:20:23;;;;;;;8.55;5.55;;;;;;;21.33;57.08;99501.84;5094426;28;20495;-71
2021/07/05 01:22:53;;;;;;;9.60;5.90;;;;;;;21.30;57.51;99501.31;5094669;28;20105;-71
2021/07/05 01:25:24;;;;;;;8.05;5.70;;;;;;;21.25;57.67;99498.28;5094442;28;20044;-71
2021/07/05 01:27:54;;;;;;;7.10;5.40;;;;;;;21.43;56.74;99502.44;5076475;28;20051;-72
2021/07/05 01:30:24;;;;;;;7.00;5.45;;;;;;;21.44;57.32;99497.84;5094146;28;20051;-69
2021/07/05 01:32:56;;;;;;;9.05;5.70;;;;;;;21.37;57.12;99496.88;5094373;28;20043;-68
2021/07/05 01:35:24;;;;;;;8.30;5.55;;;;;;;21.26;57.88;99505.41;5094136;28;20128;-67
2021/07/05 01:37:54;;;;;;;9.52;5.78;;;;;;;21.28;57.60;99508.81;5094305;28;20040;-69
2021/07/05 01:40:23;;;;;;;7.72;5.57;;;;;;;21.27;58.10;99513.38;5076150;28;20459;-69
2021/07/05 01:42:54;;;;;;;8.02;5.60;;;;;;;21.26;57.97;99511.69;5094259;28;20044;-70
2021/07/05 01:45:24;;;;;;;7.60;5.20;;;;;;;21.25;57.87;99504.56;5093821;28;20413;-71
2021/07/05 01:47:53;;;;;;;9.25;5.63;;;;;;;21.22;58.20;99498.63;5094381;28;20052;-70
2021/07/05 01:50:22;;;;;;;7.88;5.55;;;;;;;21.14;58.75;99508.53;5093860;28;20047;-70
2021/07/05 01:52:52;;;;;;;8.05;5.40;;;;;;;21.02;59.52;99507.22;5093938;28;20379;-71
2021/07/05 01:55:29;;;;;;;9.52;6.07;;;;;;;20.89;59.71;99512.38;5093780;28;20120;-70
2021/07/05 01:57:58;;;;;;;8.75;5.65;;;;;;;20.97;59.87;99506.06;5093961;28;20071;-71
2021/07/05 02:00:27;;;;;;;8.23;5.68;;;;;;;21.02;60.19;99509.91;5093873;28;20050;-70
2021/07/05 02:02:56;;;;;;;10.38;6.18;;;;;;;21.04;59.99;99507.06;5093904;28;20445;-68
2021/07/05 02:05:25;;;;;;;9.82;6.05;;;;;;;21.20;59.33;99506.94;5093530;28;20072;-70
2021/07/05 02:07:53;;;;;;;9.82;6.13;;;;;;;21.13;59.78;99505.97;5093832;28;20536;-70
2021/07/05 02:10:25;;;;;;;9.40;6.15;;;;;;;21.30;59.43;99512.16;5093487;28;20040;-69
2021/07/05 02:12:55;;;;;;;8.40;6.25;;;;;;;21.29;59.23;99511.31;5093986;28;20046;-70
2021/07/05 02:15:25;;;;;;;12.93;6.55;;;;;;;21.30;59.53;99512.16;5093219;28;20078;-70
2021/07/05 02:17:53;;;;;;;9.98;6.30;;;;;;;21.17;60.19;99517.31;5093641;28;20040;-70
2021/07/05 02:20:28;;;;;;;12.20;6.63;;;;;;;21.29;59.75;99510.50;5093464;28;20047;-70
2021/07/05 02:22:57;;;;;;;9.80;6.18;;;;;;;21.13;60.37;99523.09;5093467;28;20101;-71
2021/07/05 02:25:28;;;;;;;9.18;6.25;;;;;;;21.04;61.07;99526.03;5092286;28;20048;-70
2021/07/05 02:28:00;;;;;;;11.98;6.30;;;;;;;21.08;61.11;99519.22;5093669;28;20078;-70
2021/07/05 02:30:30;;;;;;;8.73;6.32;;;;;;;21.01;61.03;99524.50;5093530;28;20458;-70
2021/07/05 02:32:59;;;;;;;9.32;6.78;;;;;;;21.08;61.35;99530.06;5093703;28;20044;-70
2021/07/05 02:35:30;;;;;;;11.65;6.57;;;;;;;21.23;60.79;99522.00;5093261;28;20048;-70
2021/07/05 02:37:59;;;;;;;8.65;7.18;;;;;;;21.00;61.23;99517.38;5093495;28;20105;-70
2021/07/05 02:40:30;;;;;;;11.25;7.13;;;;;;;21.00;61.62;99525.53;5093036;28;20084;-70
2021/07/05 02:43:01;;;;;;;8.68;6.65;;;;;;;21.03;61.72;99532.44;5093436;28;20032;-70
2021/07/05 02:45:31;;;;;;;8.98;6.68;;;;;;;21.10;61.37;99534.28;5092853;28;20075;-70
2021/07/05 02:48:02;;;;;;;8.43;6.70;;;;;;;21.09;61.35;99527.19;5093083;28;20454;-71
2021/07/05 02:50:31;;;;;;;9.48;6.78;;;;;;;21.10;61.73;99537.00;5092913;28;20105;-70
2021/07/05 02:53:00;;;;;;;10.68;6.82;;;;;;;21.18;61.41;99548.84;5093190;28;20044;-70
2021/07/05 02:55:28;;;;;;;10.95;6.47;;;;;;;21.22;61.15;99548.28;5092735;28;20368;-70
2021/07/05 02:57:57;;;;;;;10.40;6.90;;;;;;;21.22;61.00;99547.44;5093308;28;20101;-70
2021/07/05 03:00:28;;;;;;;9.05;6.20;;;;;;;21.22;61.14;99531.16;5092666;28;20078;-73
2021/07/05 03:02:57;;;;;;;9.73;6.93;;;;;;;21.12;62.04;99542.22;5093432;28;20051;-73
2021/07/05 03:05:29;;;;;;;9.65;6.50;;;;;;;21.22;61.33;99544.72;5092495;28;20055;-73
2021/07/05 03:07:58;;;;;;;10.18;6.75;;;;;;;21.34;61.40;99546.91;5093270;28;20087;-72
2021/07/05 03:10:28;;;;;;;9.50;6.78;;;;;;;21.37;60.99;99548.41;5092548;28;20044;-73
2021/07/05 03:12:57;;;;;;;9.20;6.63;;;;;;;21.24;61.91;99550.84;5092851;28;20086;-70
2021/07/05 03:15:27;;;;;;;10.02;6.90;;;;;;;21.21;61.72;99545.75;5092767;28;20048;-69
2021/07/05 03:17:56;;;;;;;10.27;7.32;;;;;;;21.17;61.74;99560.69;5092916;28;20490;-69
2021/07/05 03:20:27;;;;;;;13.00;6.43;;;;;;;21.32;61.38;99558.94;5092316;28;20048;-69
2021/07/05 03:22:58;;;;;;;9.93;6.85;;;;;;;21.30;61.60;99558.28;5093074;28;20081;-69
2021/07/05 03:25:28;;;;;;;10.45;7.05;;;;;;;21.33;61.19;99557.94;5092376;28;20071;-70
2021/07/05 03:28:00;;;;;;;11.80;6.47;;;;;;;21.28;61.80;99555.75;5093228;28;20082;-69
2021/07/05 03:30:33;;;;;;;13.30;6.82;;;;;;;21.23;61.28;99557.25;5092411;28;20090;-69
2021/07/05 03:33:02;;;;;;;9.73;6.53;;;;;;;21.10;61.96;99553.25;5092914;28;20044;-69
2021/07/05 03:35:30;;;;;;;11.25;6.53;;;;;;;21.13;61.85;99560.19;5093061;28;20072;-68
2021/07/05 03:37:59;;;;;;;8.98;7.25;;;;;;;21.22;61.41;99566.44;5096679;28;20040;-68
2021/07/05 03:40:29;;;;;;;9.35;6.75;;;;;;;21.12;62.08;99562.06;5096469;28;20390;-69
2021/07/05 03:42:58;;;;;;;10.90;6.47;;;;;;;21.08;62.17;99558.03;5096491;28;20505;-70
2021/07/05 03:45:29;;;;;;;7.63;6.15;;;;;;;21.11;62.21;99557.66;5096422;28;20521;-69
2021/07/05 03:47:59;;;;;;;10.68;6.55;;;;;;;21.12;61.94;99570.19;5096607;28;20119;-72
2021/07/05 03:50:29;;;;;;;;;;;;;;;21.21;61.81;99570.16;5096536;28;20048;-73
2021/07/05 03:52:58;;;;;;;12.52;7.25;;;;;;;21.22;61.83;99569.13;5096349;28;19920;-72
2021/07/05 03:55:28;;;;;;;8.40;6.15;;;;;;;21.21;61.50;99567.44;5096079;28;20082;-74
2021/07/05 03:57:58;;;;;;;10.77;6.72;;;;;;;21.16;61.70;99562.56;5096537;28;20132;-73
2021/07/05 04:00:29;;;;;;;15.20;7.18;;;;;;;21.22;61.83;99558.28;5096062;28;20040;-72
2021/07/05 04:03:00;;;;;;;8.73;6.80;;;;;;;21.40;60.84;99561.63;5096220;28;20135;-73
2021/07/05 04:05:29;;;;;;;9.52;6.47;;;;;;;21.35;60.82;99558.59;5095607;28;20506;-73
2021/07/05 04:07:58;;;;;;;10.23;6.53;;;;;;;21.39;60.62;99566.19;5095861;28;20044;-73
2021/07/05 04:10:28;;;;;;;9.40;6.95;;;;;;;21.25;60.87;99557.94;5077929;28;20052;-73
2021/07/05 04:12:56;;;;;;;11.60;6.38;;;;;;;21.22;60.96;99569.97;5095962;28;20410;-74
2021/07/05 04:15:25;;;;;;;10.52;6.25;;;;;;;21.26;61.02;99565.06;5095379;28;20056;-72
2021/07/05 04:17:53;;;;;;;10.60;6.13;;;;;;;21.21;61.16;99567.44;5096143;28;20040;-72
2021/07/05 04:20:25;;;;;;;10.80;6.50;;;;;;;21.24;61.45;99567.13;5095765;28;20501;-70
2021/07/05 04:22:53;;;;;;;12.05;6.38;;;;;;;21.46;60.14;99569.06;5077954;28;20086;-72
2021/07/05 04:25:23;;;;;;;10.45;6.18;;;;;;;21.39;60.40;99566.19;5095389;28;20051;-72
2021/07/05 04:27:53;;;;;;;10.25;6.63;;;;;;;21.42;60.37;99570.41;5095706;28;20032;-73
2021/07/05 04:30:26;;;;;;;11.32;6.72;;;;;;;21.35;60.49;99581.16;5095379;28;20048;-73
2021/07/05 04:32:55;;;;;;;10.73;6.70;;;;;;;21.31;60.96;99578.97;5095770;28;20486;-73
2021/07/05 04:35:26;;;;;;;10.45;7.45;;;;;;;21.31;61.08;99579.78;5095492;28;20086;-75
2021/07/05 04:37:56;;;;;;;8.77;6.45;;;;;;;21.43;60.52;99582.97;5095268;28;20062;-75
2021/07/05 04:40:27;;;;;;;11.68;6.63;;;;;;;21.51;60.20;99584.78;5095110;28;20044;-71
2021/07/05 04:42:55;;;;;;;9.02;6.45;;;;;;;21.43;60.61;99588.41;5095395;28;20040;-72
2021/07/05 04:45:28;;;;;;;9.50;6.50;;;;;;;21.63;60.12;99581.50;5076944;28;20056;-73
2021/07/05 04:47:59;;;;;;;8.75;6.63;;;;;;;21.56;60.02;99594.09;5094740;28;20036;-72
2021/07/05 04:50:30;;;;;;;8.48;6.60;;;;;;;21.45;60.32;99583.63;5094823;28;20472;-71
2021/07/05 04:52:59;;;;;;;12.63;6.65;;;;;;;21.49;60.65;99584.97;5095153;28;20119;-73
2021/07/05 04:55:28;;;;;;;8.98;6.60;;;;;;;21.42;60.92;99583.97;5094576;28;20123;-71
2021/07/05 04:57:57;;;;;;;11.25;6.63;;;;;;;21.46;60.99;99589.91;5095031;28;20498;-71
2021/07/05 05:00:28;;;;;;;9.40;6.63;;;;;;;21.49;61.16;99584.97;5094666;28;20071;-75
2021/07/05 05:03:01;;;;;;;9.88;6.38;;;;;;;21.47;61.65;99592.44;5095230;28;20044;-72
2021/07/05 05:05:31;;;;;;;11.15;6.95;;;;;;;21.41;61.37;99590.44;5094415;28;20530;-73
2021/07/05 05:08:00;;;;;;;10.15;6.65;;;;;;;21.50;61.50;99588.53;5095143;28;20067;-74
2021/07/05 05:10:29;;;;;;;9.55;6.10;;;;;;;21.53;60.12;99589.03;5094654;28;20071;-73
2021/07/05 05:12:59;;;;;;;10.30;6.53;;;;;;;21.63;60.17;99588.78;5094796;28;20119;-73
2021/07/05 05:15:28;;;;;;;9.45;6.80;;;;;;;21.64;60.54;99590.47;5076120;28;20048;-72
2021/07/05 05:17:56;;;;;;;12.55;6.70;;;;;;;21.66;59.22;99597.41;5094779;28;20127;-73
2021/07/05 05:20:25;;;;;;;9.90;6.72;;;;;;;21.69;59.63;99588.91;5094392;28;20047;-74
2021/07/05 05:22:56;;;;;;;11.07;6.90;;;;;;;21.64;59.92;99595.91;5094704;28;20040;-76
2021/07/05 05:25:24;;;;;;;11.52;6.70;;;;;;;21.57;60.21;99603.91;5094459;28;20040;-77
2021/07/05 05:27:55;;;;;;;10.68;6.28;;;;;;;21.72;59.40;99598.56;5094346;28;20051;-75
2021/07/05 05:30:24;;;;;;;10.13;6.88;;;;;;;21.83;59.64;99605.47;5094369;28;20044;-71
2021/07/05 05:32:54;;;;;;;11.98;6.68;;;;;;;21.77;59.66;99606.16;5094415;28;20105;-71
2021/07/05 05:35:24;;;;;;;8.70;6.25;;;;;;;21.79;59.14;99612.25;5094341;28;20048;-72
2021/07/05 05:37:56;;;;;;;11.07;6.28;;;;;;;21.91;59.09;99608.13;5094600;28;20051;-73
2021/07/05 05:40:25;;;;;;;10.30;6.80;;;;;;;21.94;58.54;99615.91;5094241;28;20084;-74
2021/07/05 05:42:54;;;;;;;9.23;6.32;;;;;;;21.74;59.16;99611.97;5094279;28;20122;-71
2021/07/05 05:45:23;;;;;;;9.90;6.25;;;;;;;21.74;59.06;99606.53;5094076;28;20043;-74
2021/07/05 05:47:51;;;;;;;11.93;6.88;;;;;;;21.59;59.53;99607.28;5094552;28;20085;-73
2021/07/05 05:50:20;;;;;;;10.13;6.65;;;;;;;21.61;60.14;99616.09;5094178;28;20385;-74
2021/07/05 05:52:49;;;;;;;8.20;6.40;;;;;;;21.64;59.45;99607.59;5093834;28;20047;-71
2021/07/05 05:55:18;;;;;;;9.48;6.10;;;;;;;21.71;59.26;99614.03;5093901;28;20051;-71
2021/07/05 05:57:47;;;;;;;11.32;6.55;;;;;;;21.62;59.92;99609.66;5093610;28;20044;-72
2021/07/05 06:00:19;;;;;;;10.00;6.50;;;;;;;21.58;59.99;99608.31;5092868;28;20493;-75
2021/07/05 06:02:51;;;;;;;12.60;7.20;;;;;;;21.66;59.90;99610.97;5093656;28;20047;-73
2021/07/05 06:05:21;;;;;;;9.98;6.80;;;;;;;21.78;59.87;99613.28;5094073;28;20058;-70
2021/07/05 06:07:50;;;;;;;12.55;6.78;;;;;;;21.91;59.55;99616.28;5093654;28;20134;-71
2021/07/05 06:10:22;;;;;;;14.68;7.10;;;;;;;22.06;58.71;99613.59;5093745;28;20115;-70
2021/07/05 06:12:53;;;;;;;12.77;6.53;;;;;;;22.20;58.13;99619.13;5093695;28;20101;-70
2021/07/05 06:15:22;;;;;;;9.80;6.43;;;;;;;22.09;58.18;99616.81;5075408;28;20048;-71
2021/07/05 06:17:52;;;;;;;10.32;6.35;;;;;;;22.11;58.00;99622.09;5093185;28;20072;-72
2021/07/05 06:20:21;;;;;;;10.68;6.50;;;;;;;22.22;57.49;99627.94;5093560;28;20114;-73
2021/07/05 06:23:08;;;;;;;11.05;6.13;;;;;;;22.23;57.70;99624.19;5093779;28;20047;-75
2021/07/05 06:25:38;;;;;;;9.35;6.50;;;;;;;22.05;57.88;99626.34;5093289;28;20093;-73
2021/07/05 06:28:06;;;;;;;12.30;6.60;;;;;;;22.17;57.47;99634.91;5093657;28;20094;-74
2021/07/05 06:30:35;;;;;;;13.25;6.70;;;;;;;22.27;57.07;99639.06;5093492;28;20397;-72
2021/07/05 06:33:07;;;;;;;;;;;;;;;22.08;58.08;99636.00;5093748;28;20048;-71
2021/07/05 06:35:36;;;;;;;11.10;6.75;;;;;;;22.21;57.91;99631.69;5093286;28;19989;-76
2021/07/05 06:38:04;;;;;;;11.85;6.55;;;;;;;22.29;57.45;99630.75;5093448;28;20035;-74
2021/07/05 06:40:32;;;;;;;11.50;6.70;;;;;;;22.16;57.78;99631.38;5093161;28;20044;-74
2021/07/05 06:43:03;;;;;;;13.38;6.72;;;;;;;22.15;57.79;99623.41;5093160;28;20123;-71
2021/07/05 06:45:31;;;;;;;10.18;6.75;;;;;;;22.30;57.80;99626.19;5093029;28;20044;-76
2021/07/05 06:47:59;;;;;;;10.82;6.93;;;;;;;22.35;57.24;99634.59;5093051;28;20145;-70
2021/07/05 06:50:28;;;;;;;10.85;6.50;;;;;;;22.37;57.23;99627.13;5093166;28;20046;-72
2021/07/05 06:52:57;;;;;;;10.55;7.15;;;;;;;22.30;57.19;99639.75;5093233;28;20043;-71
2021/07/05 06:55:26;;;;;;;12.52;7.25;;;;;;;22.15;57.46;99635.09;5093209;28;20040;-71
2021/07/05 06:57:54;;;;;;;11.60;7.03;;;;;;;22.33;57.18;99640.22;5092741;28;20497;-71
2021/07/05 07:00:26;;;;;;;11.20;6.72;;;;;;;22.40;57.08;99651.22;5092947;28;20044;-71
2021/07/05 07:02:55;;;;;;;8.38;6.55;;;;;;;22.32;57.31;99649.41;5093002;28;20143;-71
2021/07/05 07:05:26;;;;;;;10.90;7.05;;;;;;;22.23;57.42;99651.34;5093180;28;20113;-71
2021/07/05 07:07:56;;;;;;;10.23;6.65;;;;;;;22.18;57.57;99652.91;5092715;28;20139;-70
2021/07/05 07:10:27;;;;;;;9.63;7.05;;;;;;;22.11;58.05;99650.09;5094128;28;20131;-72
2021/07/05 07:12:55;;;;;;;12.95;7.25;;;;;;;22.20;57.86;99657.16;5099477;28;20463;-71
2021/07/05 07:15:48;;;;;;;11.80;6.93;;;;;;;22.30;57.90;99661.50;5078388;28;20439;-71
2021/07/05 07:18:44;;;;;;;9.63;6.43;;;;;;;22.35;57.80;99664.50;5079287;28;20090;-72
2021/07/05 07:21:11;;;;;;;9.77;6.95;;;;;;;22.52;57.01;99675.06;5079328;28;20041;-70
2021/07/05 07:23:40;;;;;;;11.00;6.70;;;;;;;22.68;57.04;99676.78;5079030;28;20072;-71
2021/07/05 07:26:08;;;;;;;9.90;6.90;;;;;;;22.56;57.31;99672.81;5079415;28;20445;-71
2021/07/05 07:28:38;;;;;;;11.75;7.03;;;;;;;22.76;57.12;99673.13;5079510;28;20040;-72
2021/07/05 07:31:08;;;;;;;11.00;6.93;;;;;;;22.79;56.98;99670.91;5079277;28;20045;-72
2021/07/05 07:33:37;;;;;;;11.20;7.30;;;;;;;22.87;56.57;99675.41;5078962;28;20490;-72
2021/07/05 07:36:05;;;;;;;10.32;6.38;;;;;;;22.83;56.95;99680.38;5079034;28;20086;-72
2021/07/05 07:38:38;;;;;;;11.25;6.70;;;;;;;22.94;56.73;99683.69;5079509;28;20052;-72
2021/07/05 07:41:06;;;;;;;10.67;6.50;;;;;;;22.94;56.72;99683.69;5079472;28;20048;-72
2021/07/05 07:43:37;;;;;;;12.27;7.07;;;;;;;22.94;56.99;99687.25;5079044;28;20628;-72
2021/07/05 07:46:05;;;;;;;10.88;7.55;;;;;;;23.07;56.34;99686.63;5079069;28;20048;-72
2021/07/05 07:48:36;;;;;;;11.75;6.93;;;;;;;23.11;56.52;99690.66;5078970;28;20063;-72
2021/07/05 07:51:05;;;;;;;9.35;6.50;;;;;;;23.25;56.11;99689.81;5079144;28;20044;-72
2021/07/05 07:53:33;;;;;;;13.38;7.60;;;;;;;23.45;55.34;99683.78;5079119;28;20495;-72
2021/07/05 07:56:01;;;;;;;9.23;6.85;;;;;;;23.49;55.50;99680.53;5079157;28;20052;-72
2021/07/05 07:58:30;;;;;;;12.48;6.97;;;;;;;23.50;55.65;99686.81;5078882;28;20044;-72
2021/07/05 08:00:58;;;;;;;14.23;6.90;;;;;;;23.41;55.54;99686.91;5078881;28;20509;-72
2021/07/05 08:03:30;;;;;;;12.95;6.90;;;;;;;23.51;54.74;99683.88;5079095;28;20372;-72
2021/07/05 08:06:01;;;;;;;9.57;6.50;;;;;;;23.58;54.37;99687.56;5078710;28;20083;-72
2021/07/05 08:08:29;;;;;;;11.23;6.55;;;;;;;23.78;54.08;99687.81;5079108;28;20048;-72
2021/07/05 08:10:58;;;;;;;10.77;6.78;;;;;;;23.84;53.15;99689.78;5078682;28;20044;-73
2021/07/05 08:13:26;;;;;;;11.98;6.65;;;;;;;23.95;53.75;99686.56;5081250;28;20068;-71
2021/07/05 08:15:54;;;;;;;10.02;6.35;;;;;;;24.15;52.86;99685.94;5098939;28;20058;-72
2021/07/05 08:18:23;;;;;;;11.52;6.28;;;;;;;24.35;53.02;99681.56;5099042;28;20123;-72
2021/07/05 08:20:51;;;;;;;12.75;6.45;;;;;;;24.67;51.90;99679.31;5099270;28;20490;-72
2021/07/05 08:23:20;;;;;;;13.00;7.25;;;;;;;24.66;51.45;99678.47;5095577;28;20048;-72
2021/07/05 08:25:49;;;;;;;16.70;7.13;;;;;;;24.95;50.27;99676.59;5095595;28;20127;-72
2021/07/05 08:28:17;;;;;;;10.25;6.32;;;;;;;24.80;49.94;99666.66;5096004;28;20044;-72
2021/07/05 08:30:45;;;;;;;10.05;6.13;;;;;;;24.99;49.70;99665.09;5095713;28;20055;-72
2021/07/05 08:33:14;;;;;;;10.80;6.40;;;;;;;25.00;49.55;99669.53;5095939;28;20090;-72
2021/07/05 08:35:42;;;;;;;11.00;6.60;;;;;;;25.41;49.16;99660.56;5095231;28;20063;-72
2021/07/05 08:38:11;;;;;;;14.90;6.50;;;;;;;25.39;48.85;99668.09;5095530;28;20044;-72
2021/07/05 08:40:41;;;;;;;11.05;6.22;;;;;;;25.61;48.21;99664.22;5095759;28;20411;-72
2021/07/05 08:43:09;;;;;;;11.75;6.20;;;;;;;25.73;48.14;99659.03;5095675;28;20072;-72
2021/07/05 08:45:43;;;;;;;9.45;6.80;;;;;;;25.98;46.71;99662.06;5095987;28;20102;-72
2021/07/05 08:48:13;;;;;;;10.90;6.35;;;;;;;25.92;47.03;99660.16;5095678;28;20453;-72
2021/07/05 08:50:42;;;;;;;11.20;5.75;;;;;;;26.14;45.30;99656.19;5095133;28;20505;-73
2021/07/05 08:53:12;;;;;;;11.23;6.05;;;;;;;26.27;45.49;99654.56;5095650;28;20124;-72
2021/07/05 08:55:42;;;;;;;9.60;5.80;;;;;;;26.20;45.77;99654.53;5095564;28;20160;-72
2021/07/05 08:58:10;;;;;;;8.20;5.53;;;;;;;26.24;46.20;99651.16;5095103;28;20047;-71
2021/07/05 09:00:39;;;;;;;9.73;5.50;;;;;;;26.27;46.61;99652.66;5095102;28;20044;-70
2021/07/05 09:03:08;;;;;;;10.77;6.25;;;;;;;26.07;46.91;99665.44;5095003;28;20040;-70
2021/07/05 09:05:36;;;;;;;11.20;6.28;;;;;;;25.84;47.48;99671.25;5095253;28;20044;-72
2021/07/05 09:08:06;;;;;;;10.80;6.32;;;;;;;25.50;48.18;99670.25;5094973;28;20043;-71
2021/07/05 09:10:45;;;;;;;10.27;6.03;;;;;;;25.53;47.38;99666.28;5095314;28;20044;-71
2021/07/05 09:13:19;;;;;;;10.73;6.00;;;;;;;25.49;47.45;99667.72;5094757;28;20072;-71
2021/07/05 09:15:50;;;;;;;10.82;5.80;;;;;;;25.53;47.63;99669.84;5094629;28;20044;-72
2021/07/05 09:18:35;;;;;;;10.05;5.57;;;;;;;25.74;46.82;99676.25;5095038;28;20110;-72
2021/07/05 09:21:25;;;;;;;9.00;5.90;;;;;;;25.79;46.87;99676.50;5094842;28;20040;-73
2021/07/05 09:24:00;;;;;;;8.93;6.10;;;;;;;26.13;46.11;99667.34;5094514;28;20094;-72
2021/07/05 09:26:34;;;;;;;7.70;6.03;;;;;;;26.37;45.47;99671.38;5095278;28;20044;-72
2021/07/05 09:29:06;;;;;;;12.60;6.22;;;;;;;26.75;45.12;99669.75;5094391;28;20050;-72
2021/07/05 09:31:40;;;;;;;9.32;5.75;;;;;;;27.09;43.62;99665.09;5094545;28;20582;-72
2021/07/05 09:34:18;;;;;;;9.57;5.20;;;;;;;27.75;42.66;99666.81;5094465;28;20044;-70
2021/07/05 09:36:47;;;;;;;8.30;5.53;;;;;;;27.72;42.01;99673.59;5094434;28;20044;-73
2021/07/05 09:39:17;;;;;;;10.48;5.97;;;;;;;27.75;41.45;99673.13;5094465;28;20554;-70
2021/07/05 09:41:49;;;;;;;10.90;5.50;;;;;;;27.68;41.53;99672.31;5094415;28;20090;-73
2021/07/05 09:44:19;;;;;;;7.05;5.18;;;;;;;27.63;41.36;99666.63;5094357;28;20047;-72
2021/07/05 09:46:51;;;;;;;7.63;5.32;;;;;;;27.87;41.45;99660.44;5093988;28;20491;-71
2021/07/05 09:49:22;;;;;;;6.90;5.25;;;;;;;27.79;41.68;99660.66;5094388;28;20097;-71
2021/07/05 09:52:07;;;;;;;9.75;5.88;;;;;;;27.87;41.33;99654.94;5094254;28;20044;-71
2021/07/05 09:54:37;;;;;;;8.05;5.60;;;;;;;27.72;40.80;99648.94;5094357;28;20044;-72
2021/07/05 09:57:25;;;;;;;8.50;5.45;;;;;;;27.97;40.62;99650.88;5093794;28;20048;-72
2021/07/05 09:59:55;;;;;;;8.07;5.53;;;;;;;28.14;40.70;99652.06;5094071;28;20090;-71
2021/07/05 10:02:25;;;;;;;9.23;5.10;;;;;;;27.88;40.84;99656.63;5094385;28;20394;-71
2021/07/05 10:05:12;;;;;;;8.73;5.63;;;;;;;27.87;40.54;99656.84;5094068;28;20044;-70
2021/07/05 10:07:40;;;;;;;8.35;5.30;;;;;;;27.71;40.87;99650.00;5094141;28;20524;-71
2021/07/05 10:10:14;;;;;;;11.50;5.60;;;;;;;27.47;41.19;99656.16;5094079;28;20401;-72
2021/07/05 10:12:53;;;;;;;8.50;5.50;;;;;;;27.48;40.96;99653.19;5093783;28;20398;-71
2021/07/05 10:15:23;;;;;;;12.13;5.40;;;;;;;27.76;40.93;99652.91;5094305;28;20470;-72
2021/07/05 10:17:52;;;;;;;9.93;5.07;;;;;;;28.12;40.10;99645.97;5093332;28;20461;-71
2021/07/05 10:20:23;;;;;;;7.88;5.47;;;;;;;27.74;39.87;99646.81;5093694;28;20043;-73
2021/07/05 10:22:54;;;;;;;7.57;5.35;;;;;;;27.73;40.25;99650.59;5093665;28;20041;-71
2021/07/05 10:25:24;;;;;;;7.47;5.13;;;;;;;27.61;40.77;99641.38;5093572;28;20044;-72
2021/07/05 10:27:54;;;;;;;7.93;4.95;;;;;;;27.78;39.84;99639.81;5093469;28;20134;-72
2021/07/05 10:30:24;;;;;;;8.75;4.90;;;;;;;27.57;40.46;99634.63;5093565;28;20078;-72
2021/07/05 10:32:54;;;;;;;7.35;5.13;;;;;;;27.55;40.50;99631.25;5093122;28;20055;-71
2021/07/05 10:35:25;;;;;;;7.50;5.40;;;;;;;27.38;40.81;99631.75;5093910;28;20071;-72
2021/07/05 10:37:58;;;;;;;10.85;5.50;;;;;;;27.34;41.13;99641.47;5093404;28;20040;-72
2021/07/05 10:40:27;;;;;;;;;;;;;;;27.50;40.04;99640.13;5093925;28;20044;-72
2021/07/05 10:42:59;;;;;;;13.13;5.13;;;;;;;27.72;39.85;99637.13;5093370;28;19927;-71
2021/07/05 10:45:41;;;;;;;7.68;5.32;;;;;;;27.85;40.21;99634.31;5092915;28;20514;-73
2021/07/05 10:48:13;;;;;;;9.70;5.57;;;;;;;27.97;40.28;99634.44;5093313;28;20048;-71
2021/07/05 10:50:59;;;;;;;9.02;5.50;;;;;;;28.00;40.65;99632.13;5093241;28;20078;-72
2021/07/05 10:53:57;;;;;;;7.95;4.70;;;;;;;28.08;40.92;99636.47;5093148;28;20407;-72
2021/07/05 10:56:41;;;;;;;13.65;5.60;;;;;;;28.07;39.22;99643.03;5093301;28;20144;-72
2021/07/05 10:59:37;;;;;;;9.50;5.22;;;;;;;27.69;39.79;99629.31;5093074;28;20036;-71
2021/07/05 11:02:43;;;;;;;9.65;5.25;;;;;;;27.93;39.58;99632.16;5092810;28;20422;-71
2021/07/05 11:05:43;;;;;;;8.60;5.32;;;;;;;28.26;38.78;99635.72;5093275;28;20406;-71
2021/07/05 11:08:22;;;;;;;9.35;5.32;;;;;;;28.32;38.67;99637.63;5093008;28;20122;-71
2021/07/05 11:11:11;;;;;;;9.77;5.05;;;;;;;28.19;38.48;99644.88;5093229;28;20139;-72
2021/07/05 11:13:40;;;;;;;8.93;5.70;;;;;;;28.06;38.70;99633.97;5093191;28;20131;-71
2021/07/05 11:16:10;;;;;;;10.10;4.95;;;;;;;27.78;39.53;99642.56;5092778;28;20142;-72
2021/07/05 11:18:59;;;;;;;7.85;5.18;;;;;;;28.10;38.34;99620.69;5092900;28;20477;-71
2021/07/05 11:21:58;;;;;;;7.97;4.93;;;;;;;28.22;37.72;99627.13;5087258;28;20102;-71
2021/07/05 11:24:43;;;;;;;9.88;5.30;;;;;;;28.37;38.56;99632.28;5075028;28;20044;-71
2021/07/05 11:27:47;;;;;;;9.88;5.35;;;;;;;28.41;37.83;99631.66;5092652;28;20040;-71
2021/07/05 11:30:45;;;;;;;8.35;5.63;;;;;;;28.36;36.97;99631.47;5092897;28;20056;-71
2021/07/05 11:33:41;;;;;;;8.23;5.30;;;;;;;28.63;37.29;99618.38;5092375;28;20047;-72
2021/07/05 11:36:21;;;;;;;8.90;5.10;;;;;;;28.65;36.87;99627.22;5075361;28;20058;-70
2021/07/05 11:38:59;;;;;;;9.20;5.18;;;;;;;28.68;36.12;99615.81;5092723;28;20044;-71
2021/07/05 11:41:29;;;;;;;7.63;5.07;;;;;;;28.74;36.74;99620.38;5092680;28;20115;-71
2021/07/05 11:44:01;;;;;;;9.95;5.38;;;;;;;28.67;37.12;99618.78;5092546;28;20376;-70
2021/07/05 11:46:52;;;;;;;7.60;5.43;;;;;;;28.61;36.19;99612.28;5092993;28;20047;-72
2021/07/05 11:49:28;;;;;;;7.50;5.53;;;;;;;28.50;36.75;99613.84;5092276;28;20044;-72